sensor_id;sensor_type;location;lat;lon;timestamp;pressure;altitude;pressure_sealevel;temperature;humidity
51297;BME280;37380;45.186;9.792;2022-11-20T00:00:38;100398.94;;;6.10;100.00
51297;BME280;37380;45.186;9.792;2022-11-20T00:03:05;100405.56;;;6.41;100.00
51297;BME280;37380;45.186;9.792;2022-11-20T00:05:32;100409.88;;;6.41;100.00
51297;BME280;37380;45.186;9.792;2022-11-20T00:07:59;100412.06;;;6.31;100.00
51297;BME280;37380;45.186;9.792;2022-11-20T00:10:26;100415.09;;;6.23;100.00
51297;BME280;37380;45.186;9.792;2022-11-20T00:12:53;100408.50;;;6.11;100.00
51297;BME280;37380;45.186;9.792;2022-11-20T00:15:20;100406.63;;;5.91;100.00
51297;BME280;37380;45.186;9.792;2022-11-20T00:17:53;100408.69;;;5.80;100.00
51297;BME280;37380;45.186;9.792;2022-11-20T00:20:48;100414.00;;;6.18;100.00
51297;BME280;37380;45.186;9.792;2022-11-20T00:23:21;100423.06;;;6.08;100.00
51297;BME280;37380;45.186;9.792;2022-11-20T00:26:22;100422.19;;;5.91;100.00
51297;BME280;37380;45.186;9.792;2022-11-20T00:28:50;100433.19;;;6.03;100.00
51297;BME280;37380;45.186;9.792;2022-11-20T00:31:24;100431.56;;;6.05;100.00
51297;BME280;37380;45.186;9.792;2022-11-20T00:34:20;100440.41;;;5.93;100.00
51297;BME280;37380;45.186;9.792;2022-11-20T00:36:53;100444.69;;;5.92;100.00
51297;BME280;37380;45.186;9.792;2022-11-20T00:39:54;100441.13;;;5.90;100.00
51297;BME280;37380;45.186;9.792;2022-11-20T00:42:49;100449.59;;;5.86;100.00
51297;BME280;37380;45.186;9.792;2022-11-20T00:45:15;100452.16;;;6.02;100.00
51297;BME280;37380;45.186;9.792;2022-11-20T00:47:42;100439.69;;;6.13;100.00
51297;BME280;37380;45.186;9.792;2022-11-20T00:50:09;100455.06;;;6.08;100.00
51297;BME280;37380;45.186;9.792;2022-11-20T00:52:42;100450.00;;;5.94;100.00
51297;BME280;37380;45.186;9.792;2022-11-20T00:55:30;100449.03;;;5.57;100.00
51297;BME280;37380;45.186;9.792;2022-11-20T00:57:57;100449.59;;;5.52;100.00
51297;BME280;37380;45.186;9.792;2022-11-20T01:00:24;100450.97;;;5.61;100.00
51297;BME280;37380;45.186;9.792;2022-11-20T01:02:57;100454.81;;;5.70;100.00
51297;BME280;37380;45.186;9.792;2022-11-20T01:05:52;100448.06;;;5.55;100.00
51297;BME280;37380;45.186;9.792;2022-11-20T01:08:18;100451.03;;;5.63;100.00
51297;BME280;37380;45.186;9.792;2022-11-20T01:10:45;100453.06;;;5.52;100.00
51297;BME280;37380;45.186;9.792;2022-11-20T01:13:12;100453.59;;;5.45;100.00
51297;BME280;37380;45.186;9.792;2022-11-20T01:16:01;100453.38;;;5.24;100.00
51297;BME280;37380;45.186;9.792;2022-11-20T01:18:29;100456.22;;;4.96;100.00
51297;BME280;37380;45.186;9.792;2022-11-20T01:20:59;100450.06;;;4.94;100.00
51297;BME280;37380;45.186;9.792;2022-11-20T01:23:33;100452.03;;;4.98;100.00
51297;BME280;37380;45.186;9.792;2022-11-20T01:26:29;100449.97;;;5.09;100.00
51297;BME280;37380;45.186;9.792;2022-11-20T01:29:03;100448.53;;;5.14;100.00
51297;BME280;37380;45.186;9.792;2022-11-20T01:32:03;100451.78;;;5.10;100.00
51297;BME280;37380;45.186;9.792;2022-11-20T01:34:58;100451.28;;;5.17;100.00
51297;BME280;37380;45.186;9.792;2022-11-20T01:37:24;100459.94;;;5.17;100.00
51297;BME280;37380;45.186;9.792;2022-11-20T01:39:52;100458.97;;;4.99;100.00
51297;BME280;37380;45.186;9.792;2022-11-20T01:42:19;100463.47;;;4.70;100.00
51297;BME280;37380;45.186;9.792;2022-11-20T01:47:50;100470.28;;;4.85;100.00
51297;BME280;37380;45.186;9.792;2022-11-20T01:52:52;100460.66;;;4.66;100.00
51297;BME280;37380;45.186;9.792;2022-11-20T01:55:22;100467.16;;;4.59;100.00
51297;BME280;37380;45.186;9.792;2022-11-20T01:57:51;100465.25;;;4.55;100.00
51297;BME280;37380;45.186;9.792;2022-11-20T02:00:18;100460.78;;;4.52;100.00
51297;BME280;37380;45.186;9.792;2022-11-20T02:02:48;100462.94;;;4.45;100.00
51297;BME280;37380;45.186;9.792;2022-11-20T02:05:21;100459.28;;;4.72;100.00
51297;BME280;37380;45.186;9.792;2022-11-20T02:07:49;100467.53;;;4.82;100.00
51297;BME280;37380;45.186;9.792;2022-11-20T02:10:17;100460.31;;;4.76;100.00
51297;BME280;37380;45.186;9.792;2022-11-20T02:12:43;100465.19;;;4.70;100.00
51297;BME280;37380;45.186;9.792;2022-11-20T02:15:37;100470.44;;;4.71;100.00
51297;BME280;37380;45.186;9.792;2022-11-20T02:18:38;100466.78;;;4.68;100.00
51297;BME280;37380;45.186;9.792;2022-11-20T02:24:23;100469.13;;;4.63;100.00
51297;BME280;37380;45.186;9.792;2022-11-20T02:27:18;100475.59;;;4.55;100.00
51297;BME280;37380;45.186;9.792;2022-11-20T02:29:56;100478.00;;;4.52;100.00
51297;BME280;37380;45.186;9.792;2022-11-20T02:32:52;100477.03;;;4.50;100.00
51297;BME280;37380;45.186;9.792;2022-11-20T02:38:20;100472.22;;;4.41;100.00
51297;BME280;37380;45.186;9.792;2022-11-20T02:40:47;100473.94;;;4.41;100.00
51297;BME280;37380;45.186;9.792;2022-11-20T02:43:20;100476.03;;;4.48;100.00
51297;BME280;37380;45.186;9.792;2022-11-20T02:45:47;100480.09;;;4.43;100.00
51297;BME280;37380;45.186;9.792;2022-11-20T02:48:21;100475.88;;;4.45;100.00
51297;BME280;37380;45.186;9.792;2022-11-20T02:51:16;100470.06;;;4.49;100.00
51297;BME280;37380;45.186;9.792;2022-11-20T02:53:43;100469.31;;;4.35;100.00
51297;BME280;37380;45.186;9.792;2022-11-20T02:56:10;100476.75;;;4.14;100.00
51297;BME280;37380;45.186;9.792;2022-11-20T02:58:37;100476.31;;;4.06;100.00
51297;BME280;37380;45.186;9.792;2022-11-20T03:01:04;100480.91;;;3.96;100.00
51297;BME280;37380;45.186;9.792;2022-11-20T03:03:31;100474.91;;;3.97;100.00
51297;BME280;37380;45.186;9.792;2022-11-20T03:05:58;100477.13;;;4.05;100.00
51297;BME280;37380;45.186;9.792;2022-11-20T03:08:25;100473.75;;;3.92;100.00
51297;BME280;37380;45.186;9.792;2022-11-20T03:10:52;100479.25;;;3.98;100.00
51297;BME280;37380;45.186;9.792;2022-11-20T03:13:19;100480.81;;;3.79;100.00
51297;BME280;37380;45.186;9.792;2022-11-20T03:15:46;100484.09;;;3.77;100.00
51297;BME280;37380;45.186;9.792;2022-11-20T03:18:13;100477.88;;;3.73;100.00
51297;BME280;37380;45.186;9.792;2022-11-20T03:20:47;100473.22;;;3.82;100.00
51297;BME280;37380;45.186;9.792;2022-11-20T03:23:48;100473.59;;;3.74;100.00
51297;BME280;37380;45.186;9.792;2022-11-20T03:26:49;100481.16;;;3.71;100.00
51297;BME280;37380;45.186;9.792;2022-11-20T03:29:50;100473.13;;;3.66;100.00
51297;BME280;37380;45.186;9.792;2022-11-20T03:32:52;100474.66;;;3.77;100.00
51297;BME280;37380;45.186;9.792;2022-11-20T03:35:19;100484.03;;;4.21;100.00
51297;BME280;37380;45.186;9.792;2022-11-20T03:37:46;100485.00;;;4.38;100.00
51297;BME280;37380;45.186;9.792;2022-11-20T03:40:13;100481.88;;;4.44;100.00
51297;BME280;37380;45.186;9.792;2022-11-20T03:42:40;100483.72;;;4.46;100.00
51297;BME280;37380;45.186;9.792;2022-11-20T03:45:14;100477.34;;;4.40;100.00
51297;BME280;37380;45.186;9.792;2022-11-20T03:47:41;100488.06;;;4.31;100.00
51297;BME280;37380;45.186;9.792;2022-11-20T03:50:09;100488.00;;;4.15;100.00
51297;BME280;37380;45.186;9.792;2022-11-20T03:52:42;100483.00;;;4.18;100.00
51297;BME280;37380;45.186;9.792;2022-11-20T03:55:37;100486.13;;;4.12;100.00
51297;BME280;37380;45.186;9.792;2022-11-20T03:58:04;100489.03;;;4.18;100.00
51297;BME280;37380;45.186;9.792;2022-11-20T04:00:36;100494.38;;;4.21;100.00
51297;BME280;37380;45.186;9.792;2022-11-20T04:03:38;100496.03;;;4.19;100.00
51297;BME280;37380;45.186;9.792;2022-11-20T04:06:21;100500.56;;;4.08;100.00
51297;BME280;37380;45.186;9.792;2022-11-20T04:08:48;100498.97;;;4.11;100.00
51297;BME280;37380;45.186;9.792;2022-11-20T04:13:47;100496.53;;;4.28;100.00
51297;BME280;37380;45.186;9.792;2022-11-20T04:16:15;100498.06;;;4.25;100.00
51297;BME280;37380;45.186;9.792;2022-11-20T04:18:42;100505.69;;;4.38;100.00
51297;BME280;37380;45.186;9.792;2022-11-20T04:21:09;100504.88;;;4.39;100.00
51297;BME280;37380;45.186;9.792;2022-11-20T04:23:42;100499.47;;;4.35;100.00
51297;BME280;37380;45.186;9.792;2022-11-20T04:26:43;100496.22;;;4.07;100.00
51297;BME280;37380;45.186;9.792;2022-11-20T04:29:38;100500.50;;;3.77;100.00
51297;BME280;37380;45.186;9.792;2022-11-20T04:32:10;100517.91;;;3.37;100.00
51297;BME280;37380;45.186;9.792;2022-11-20T04:35:05;100520.41;;;3.07;100.00
51297;BME280;37380;45.186;9.792;2022-11-20T04:37:32;100519.28;;;2.89;100.00
51297;BME280;37380;45.186;9.792;2022-11-20T04:39:59;100515.88;;;2.90;100.00
51297;BME280;37380;45.186;9.792;2022-11-20T04:42:25;100515.44;;;2.82;100.00
51297;BME280;37380;45.186;9.792;2022-11-20T04:44:55;100519.09;;;2.72;100.00
51297;BME280;37380;45.186;9.792;2022-11-20T04:47:22;100515.44;;;2.56;100.00
51297;BME280;37380;45.186;9.792;2022-11-20T04:49:49;100518.47;;;2.48;100.00
51297;BME280;37380;45.186;9.792;2022-11-20T04:52:16;100521.22;;;2.38;100.00
51297;BME280;37380;45.186;9.792;2022-11-20T04:54:50;100523.41;;;2.32;100.00
51297;BME280;37380;45.186;9.792;2022-11-20T04:57:50;100512.31;;;2.20;100.00
51297;BME280;37380;45.186;9.792;2022-11-20T05:00:17;100518.88;;;2.28;100.00
51297;BME280;37380;45.186;9.792;2022-11-20T05:02:44;100519.06;;;2.31;100.00
51297;BME280;37380;45.186;9.792;2022-11-20T05:05:11;100521.31;;;2.26;100.00
51297;BME280;37380;45.186;9.792;2022-11-20T05:07:38;100522.03;;;2.37;100.00
51297;BME280;37380;45.186;9.792;2022-11-20T05:10:05;100530.34;;;2.46;100.00
51297;BME280;37380;45.186;9.792;2022-11-20T05:12:33;100532.72;;;2.43;100.00
51297;BME280;37380;45.186;9.792;2022-11-20T05:15:00;100529.88;;;2.39;100.00
51297;BME280;37380;45.186;9.792;2022-11-20T05:17:27;100531.16;;;2.32;100.00
51297;BME280;37380;45.186;9.792;2022-11-20T05:19:54;100536.81;;;2.40;100.00
51297;BME280;37380;45.186;9.792;2022-11-20T05:22:20;100541.34;;;2.44;100.00
51297;BME280;37380;45.186;9.792;2022-11-20T05:24:54;100541.06;;;2.66;100.00
51297;BME280;37380;45.186;9.792;2022-11-20T05:27:55;100539.03;;;2.75;100.00
51297;BME280;37380;45.186;9.792;2022-11-20T05:30:56;100539.97;;;3.04;100.00
51297;BME280;37380;45.186;9.792;2022-11-20T05:33:50;100540.63;;;2.73;100.00
51297;BME280;37380;45.186;9.792;2022-11-20T05:36:37;100548.53;;;2.89;100.00
51297;BME280;37380;45.186;9.792;2022-11-20T05:39:04;100555.84;;;2.97;100.00
51297;BME280;37380;45.186;9.792;2022-11-20T05:41:37;100566.97;;;3.09;100.00
51297;BME280;37380;45.186;9.792;2022-11-20T05:44:31;100566.97;;;3.09;100.00
51297;BME280;37380;45.186;9.792;2022-11-20T05:46:58;100568.19;;;3.01;100.00
51297;BME280;37380;45.186;9.792;2022-11-20T05:49:24;100568.56;;;3.07;100.00
51297;BME280;37380;45.186;9.792;2022-11-20T05:51:51;100576.03;;;3.30;100.00
51297;BME280;37380;45.186;9.792;2022-11-20T05:54:18;100582.72;;;3.13;100.00
51297;BME280;37380;45.186;9.792;2022-11-20T05:56:45;100582.66;;;3.12;100.00
51297;BME280;37380;45.186;9.792;2022-11-20T05:59:12;100590.47;;;3.13;100.00
51297;BME280;37380;45.186;9.792;2022-11-20T06:01:39;100585.06;;;2.95;100.00
51297;BME280;37380;45.186;9.792;2022-11-20T06:04:06;100588.38;;;3.21;100.00
51297;BME280;37380;45.186;9.792;2022-11-20T06:06:33;100591.59;;;3.04;100.00
51297;BME280;37380;45.186;9.792;2022-11-20T06:08:59;100606.19;;;3.03;100.00
51297;BME280;37380;45.186;9.792;2022-11-20T06:11:29;100603.94;;;2.94;100.00
51297;BME280;37380;45.186;9.792;2022-11-20T06:14:02;100607.47;;;3.10;100.00
51297;BME280;37380;45.186;9.792;2022-11-20T06:16:49;100611.47;;;2.91;100.00
51297;BME280;37380;45.186;9.792;2022-11-20T06:19:16;100616.44;;;2.88;100.00
51297;BME280;37380;45.186;9.792;2022-11-20T06:21:43;100619.81;;;2.87;100.00
51297;BME280;37380;45.186;9.792;2022-11-20T06:24:17;100622.78;;;2.93;100.00
51297;BME280;37380;45.186;9.792;2022-11-20T06:27:12;100634.91;;;2.68;100.00
51297;BME280;37380;45.186;9.792;2022-11-20T06:29:39;100635.09;;;2.58;100.00
51297;BME280;37380;45.186;9.792;2022-11-20T06:32:12;100633.69;;;2.76;100.00
51297;BME280;37380;45.186;9.792;2022-11-20T06:35:13;100629.66;;;2.80;100.00
51297;BME280;37380;45.186;9.792;2022-11-20T06:38:07;100638.47;;;2.70;100.00
51297;BME280;37380;45.186;9.792;2022-11-20T06:40:34;100637.19;;;2.63;100.00
51297;BME280;37380;45.186;9.792;2022-11-20T06:43:01;100644.03;;;2.76;100.00
51297;BME280;37380;45.186;9.792;2022-11-20T06:45:28;100651.06;;;2.92;100.00
51297;BME280;37380;45.186;9.792;2022-11-20T06:47:56;100653.16;;;2.98;100.00
51297;BME280;37380;45.186;9.792;2022-11-20T06:50:23;100655.31;;;3.05;100.00
51297;BME280;37380;45.186;9.792;2022-11-20T06:52:50;100663.44;;;3.11;100.00
51297;BME280;37380;45.186;9.792;2022-11-20T06:55:17;100657.50;;;3.12;100.00
51297;BME280;37380;45.186;9.792;2022-11-20T06:57:44;100657.41;;;3.10;100.00
51297;BME280;37380;45.186;9.792;2022-11-20T07:00:11;100666.72;;;3.22;100.00
51297;BME280;37380;45.186;9.792;2022-11-20T07:02:38;100663.94;;;3.32;100.00
51297;BME280;37380;45.186;9.792;2022-11-20T07:05:05;100664.81;;;3.32;100.00
51297;BME280;37380;45.186;9.792;2022-11-20T07:07:31;100663.81;;;3.44;100.00
51297;BME280;37380;45.186;9.792;2022-11-20T07:09:58;100664.88;;;3.47;100.00
51297;BME280;37380;45.186;9.792;2022-11-20T07:12:25;100670.75;;;3.45;100.00
51297;BME280;37380;45.186;9.792;2022-11-20T07:14:52;100674.34;;;3.47;100.00
51297;BME280;37380;45.186;9.792;2022-11-20T07:17:26;100680.72;;;3.38;100.00
51297;BME280;37380;45.186;9.792;2022-11-20T07:20:27;100687.38;;;3.63;100.00
51297;BME280;37380;45.186;9.792;2022-11-20T07:22:56;100687.25;;;3.75;100.00
51297;BME280;37380;45.186;9.792;2022-11-20T07:25:30;100699.81;;;3.97;100.00
51297;BME280;37380;45.186;9.792;2022-11-20T07:28:24;100705.34;;;4.03;100.00
51297;BME280;37380;45.186;9.792;2022-11-20T07:30:57;100706.72;;;4.11;100.00
51297;BME280;37380;45.186;9.792;2022-11-20T07:33:58;100710.28;;;4.13;100.00
51297;BME280;37380;45.186;9.792;2022-11-20T07:36:25;100706.06;;;4.15;100.00
51297;BME280;37380;45.186;9.792;2022-11-20T07:38:52;100702.81;;;4.32;100.00
51297;BME280;37380;45.186;9.792;2022-11-20T07:41:26;100711.22;;;4.58;100.00
51297;BME280;37380;45.186;9.792;2022-11-20T07:44:27;100712.56;;;4.66;100.00
51297;BME280;37380;45.186;9.792;2022-11-20T07:47:21;100712.56;;;4.66;100.00
51297;BME280;37380;45.186;9.792;2022-11-20T07:49:48;100710.22;;;4.71;100.00
51297;BME280;37380;45.186;9.792;2022-11-20T07:52:15;100717.75;;;4.66;100.00
51297;BME280;37380;45.186;9.792;2022-11-20T07:54:41;100714.25;;;4.81;100.00
51297;BME280;37380;45.186;9.792;2022-11-20T07:57:08;100719.69;;;4.85;100.00
51297;BME280;37380;45.186;9.792;2022-11-20T07:59:35;100711.53;;;5.09;100.00
51297;BME280;37380;45.186;9.792;2022-11-20T08:02:02;100722.56;;;4.90;100.00
51297;BME280;37380;45.186;9.792;2022-11-20T08:04:29;100718.44;;;4.93;100.00
51297;BME280;37380;45.186;9.792;2022-11-20T08:07:03;100727.63;;;4.59;100.00
51297;BME280;37380;45.186;9.792;2022-11-20T08:09:57;100734.25;;;4.68;100.00
51297;BME280;37380;45.186;9.792;2022-11-20T08:12:31;100726.09;;;5.21;100.00
51297;BME280;37380;45.186;9.792;2022-11-20T08:15:47;100737.50;;;5.25;100.00
51297;BME280;37380;45.186;9.792;2022-11-20T08:18:14;100740.53;;;5.33;100.00
51297;BME280;37380;45.186;9.792;2022-11-20T08:20:57;100734.03;;;5.56;100.00
51297;BME280;37380;45.186;9.792;2022-11-20T08:23:31;100743.03;;;5.79;100.00
51297;BME280;37380;45.186;9.792;2022-11-20T08:26:25;100746.22;;;6.21;100.00
51297;BME280;37380;45.186;9.792;2022-11-20T08:28:53;100746.22;;;6.21;100.00
51297;BME280;37380;45.186;9.792;2022-11-20T08:31:27;100749.94;;;5.78;100.00
51297;BME280;37380;45.186;9.792;2022-11-20T08:34:21;100741.25;;;5.30;100.00
51297;BME280;37380;45.186;9.792;2022-11-20T08:36:47;100753.59;;;5.19;100.00
51297;BME280;37380;45.186;9.792;2022-11-20T08:39:15;100753.91;;;5.40;100.00
51297;BME280;37380;45.186;9.792;2022-11-20T08:41:42;100761.09;;;5.61;100.00
51297;BME280;37380;45.186;9.792;2022-11-20T08:44:15;100761.13;;;5.77;100.00
51297;BME280;37380;45.186;9.792;2022-11-20T08:47:16;100757.63;;;6.41;100.00
51297;BME280;37380;45.186;9.792;2022-11-20T08:50:10;100767.75;;;6.52;100.00
51297;BME280;37380;45.186;9.792;2022-11-20T08:52:38;100764.34;;;6.53;100.00
51297;BME280;37380;45.186;9.792;2022-11-20T08:55:05;100763.97;;;6.80;100.00
51297;BME280;37380;45.186;9.792;2022-11-20T08:57:33;100771.38;;;6.72;100.00
51297;BME280;37380;45.186;9.792;2022-11-20T09:00:00;100767.09;;;7.25;100.00
51297;BME280;37380;45.186;9.792;2022-11-20T09:02:35;100768.09;;;7.64;100.00
51297;BME280;37380;45.186;9.792;2022-11-20T09:05:02;100776.84;;;7.84;100.00
51297;BME280;37380;45.186;9.792;2022-11-20T09:07:29;100774.19;;;8.02;100.00
51297;BME280;37380;45.186;9.792;2022-11-20T09:09:57;100771.66;;;8.04;100.00
51297;BME280;37380;45.186;9.792;2022-11-20T09:12:43;100773.00;;;8.33;100.00
51297;BME280;37380;45.186;9.792;2022-11-20T09:15:10;100779.78;;;8.29;100.00
51297;BME280;37380;45.186;9.792;2022-11-20T09:17:55;100769.72;;;8.18;100.00
51297;BME280;37380;45.186;9.792;2022-11-20T09:20:49;100772.81;;;8.48;100.00
51297;BME280;37380;45.186;9.792;2022-11-20T09:23:23;100775.91;;;8.58;100.00
51297;BME280;37380;45.186;9.792;2022-11-20T09:26:23;100780.97;;;8.37;100.00
51297;BME280;37380;45.186;9.792;2022-11-20T09:28:50;100785.69;;;8.64;100.00
51297;BME280;37380;45.186;9.792;2022-11-20T09:31:30;100782.66;;;8.55;100.00
51297;BME280;37380;45.186;9.792;2022-11-20T09:34:24;100780.53;;;8.66;100.00
51297;BME280;37380;45.186;9.792;2022-11-20T09:36:51;100781.69;;;8.33;100.00
51297;BME280;37380;45.186;9.792;2022-11-20T09:39:18;100776.16;;;8.45;100.00
51297;BME280;37380;45.186;9.792;2022-11-20T09:41:58;100782.09;;;8.04;100.00
51297;BME280;37380;45.186;9.792;2022-11-20T09:47:16;100778.84;;;8.47;100.00
51297;BME280;37380;45.186;9.792;2022-11-20T09:52:25;100773.25;;;8.20;100.00
51297;BME280;37380;45.186;9.792;2022-11-20T09:55:02;100768.63;;;8.51;100.00
51297;BME280;37380;45.186;9.792;2022-11-20T09:58:07;100766.16;;;8.54;100.00
51297;BME280;37380;45.186;9.792;2022-11-20T10:01:14;100760.72;;;7.74;100.00
51297;BME280;37380;45.186;9.792;2022-11-20T10:06:29;100760.19;;;8.57;100.00
51297;BME280;37380;45.186;9.792;2022-11-20T10:09:27;100745.03;;;8.89;100.00
51297;BME280;37380;45.186;9.792;2022-11-20T10:20:14;100746.81;;;8.30;100.00
51297;BME280;37380;45.186;9.792;2022-11-20T10:23:21;100744.75;;;8.23;100.00
51297;BME280;37380;45.186;9.792;2022-11-20T10:25:44;100741.34;;;8.43;100.00
51297;BME280;37380;45.186;9.792;2022-11-20T10:31:40;100738.69;;;8.82;100.00
51297;BME280;37380;45.186;9.792;2022-11-20T10:35:01;100731.25;;;8.91;100.00
51297;BME280;37380;45.186;9.792;2022-11-20T10:38:00;100736.84;;;9.89;100.00
51297;BME280;37380;45.186;9.792;2022-11-20T10:40:37;100721.25;;;10.37;100.00
51297;BME280;37380;45.186;9.792;2022-11-20T10:43:09;100730.53;;;9.82;100.00
51297;BME280;37380;45.186;9.792;2022-11-20T10:45:50;100728.25;;;9.91;100.00
51297;BME280;37380;45.186;9.792;2022-11-20T10:48:23;100712.75;;;9.72;100.00
51297;BME280;37380;45.186;9.792;2022-11-20T10:51:13;100706.63;;;9.26;100.00
51297;BME280;37380;45.186;9.792;2022-11-20T10:53:48;100710.34;;;9.54;100.00
51297;BME280;37380;45.186;9.792;2022-11-20T11:01:23;100708.75;;;10.28;100.00
51297;BME280;37380;45.186;9.792;2022-11-20T11:03:50;100716.81;;;9.88;100.00
51297;BME280;37380;45.186;9.792;2022-11-20T11:06:37;100707.75;;;10.25;100.00
51297;BME280;37380;45.186;9.792;2022-11-20T11:09:15;100706.63;;;10.93;100.00
51297;BME280;37380;45.186;9.792;2022-11-20T11:11:43;100702.28;;;10.94;100.00
51297;BME280;37380;45.186;9.792;2022-11-20T11:14:17;100707.00;;;11.31;100.00
51297;BME280;37380;45.186;9.792;2022-11-20T11:17:45;100707.78;;;11.01;100.00
51297;BME280;37380;45.186;9.792;2022-11-20T11:20:32;100708.28;;;9.92;100.00
51297;BME280;37380;45.186;9.792;2022-11-20T11:22:59;100700.59;;;10.43;100.00
51297;BME280;37380;45.186;9.792;2022-11-20T11:25:36;100696.06;;;9.68;100.00
51297;BME280;37380;45.186;9.792;2022-11-20T11:28:30;100694.97;;;9.62;100.00
51297;BME280;37380;45.186;9.792;2022-11-20T11:31:04;100690.69;;;9.64;100.00
51297;BME280;37380;45.186;9.792;2022-11-20T11:34:10;100690.66;;;9.40;100.00
51297;BME280;37380;45.186;9.792;2022-11-20T11:36:38;100685.03;;;9.30;100.00
51297;BME280;37380;45.186;9.792;2022-11-20T11:39:05;100694.63;;;9.99;100.00
51297;BME280;37380;45.186;9.792;2022-11-20T11:41:38;100691.13;;;9.52;100.00
51297;BME280;37380;45.186;9.792;2022-11-20T11:47:29;100684.59;;;9.63;100.00
51297;BME280;37380;45.186;9.792;2022-11-20T11:50:36;100671.22;;;9.54;100.00
51297;BME280;37380;45.186;9.792;2022-11-20T11:53:14;100671.91;;;9.72;100.00
51297;BME280;37380;45.186;9.792;2022-11-20T11:56:12;100674.50;;;9.72;100.00
51297;BME280;37380;45.186;9.792;2022-11-20T11:59:13;100671.91;;;9.72;100.00
51297;BME280;37380;45.186;9.792;2022-11-20T12:02:01;100672.03;;;9.77;100.00
51297;BME280;37380;45.186;9.792;2022-11-20T12:05:10;100666.97;;;10.04;100.00
51297;BME280;37380;45.186;9.792;2022-11-20T12:13:04;100656.28;;;9.74;100.00
51297;BME280;37380;45.186;9.792;2022-11-20T12:15:45;100647.69;;;10.25;100.00
51297;BME280;37380;45.186;9.792;2022-11-20T12:18:50;100648.38;;;10.20;100.00
51297;BME280;37380;45.186;9.792;2022-11-20T12:24:28;100651.19;;;10.25;100.00
51297;BME280;37380;45.186;9.792;2022-11-20T12:30:07;100647.38;;;10.15;100.00
51297;BME280;37380;45.186;9.792;2022-11-20T12:49:52;100622.50;;;10.78;100.00
51297;BME280;37380;45.186;9.792;2022-11-20T12:52:34;100618.44;;;10.60;100.00
51297;BME280;37380;45.186;9.792;2022-11-20T12:55:13;100620.63;;;10.74;100.00
51297;BME280;37380;45.186;9.792;2022-11-20T12:58:18;100607.69;;;10.77;100.00
51297;BME280;37380;45.186;9.792;2022-11-20T13:00:50;100611.41;;;10.58;100.00
51297;BME280;37380;45.186;9.792;2022-11-20T13:03:32;100610.72;;;10.38;100.00
51297;BME280;37380;45.186;9.792;2022-11-20T13:06:26;100603.66;;;10.35;100.00
51297;BME280;37380;45.186;9.792;2022-11-20T13:09:28;100609.25;;;10.46;100.00
51297;BME280;37380;45.186;9.792;2022-11-20T13:20:43;100597.50;;;10.59;100.00
51297;BME280;37380;45.186;9.792;2022-11-20T13:23:45;100589.38;;;10.77;100.00
51297;BME280;37380;45.186;9.792;2022-11-20T13:26:39;100582.84;;;10.64;100.00
51297;BME280;37380;45.186;9.792;2022-11-20T13:29:09;100580.94;;;10.58;100.00
51297;BME280;37380;45.186;9.792;2022-11-20T13:31:41;100573.00;;;10.55;100.00
51297;BME280;37380;45.186;9.792;2022-11-20T13:34:11;100574.53;;;10.49;100.00
51297;BME280;37380;45.186;9.792;2022-11-20T13:36:53;100573.00;;;10.55;100.00
51297;BME280;37380;45.186;9.792;2022-11-20T13:39:47;100574.88;;;10.59;100.00
51297;BME280;37380;45.186;9.792;2022-11-20T13:44:53;100564.06;;;10.49;100.00
51297;BME280;37380;45.186;9.792;2022-11-20T13:47:54;100572.97;;;10.54;100.00
51297;BME280;37380;45.186;9.792;2022-11-20T13:50:57;100568.06;;;10.64;100.00
51297;BME280;37380;45.186;9.792;2022-11-20T13:55:54;100565.84;;;10.50;100.00
51297;BME280;37380;45.186;9.792;2022-11-20T14:01:08;100569.59;;;10.58;100.00
51297;BME280;37380;45.186;9.792;2022-11-20T14:03:35;100572.00;;;10.79;100.00
51297;BME280;37380;45.186;9.792;2022-11-20T14:06:33;100571.72;;;10.70;100.00
51297;BME280;37380;45.186;9.792;2022-11-20T14:09:01;100565.00;;;10.78;100.00
51297;BME280;37380;45.186;9.792;2022-11-20T14:11:28;100561.72;;;10.56;100.00
51297;BME280;37380;45.186;9.792;2022-11-20T14:14:24;100565.50;;;10.66;100.00
51297;BME280;37380;45.186;9.792;2022-11-20T14:19:50;100552.28;;;10.61;100.00
51297;BME280;37380;45.186;9.792;2022-11-20T14:22:25;100549.66;;;10.61;100.00
51297;BME280;37380;45.186;9.792;2022-11-20T14:25:26;100557.56;;;10.63;100.00
51297;BME280;37380;45.186;9.792;2022-11-20T14:28:28;100554.66;;;10.54;100.00
51297;BME280;37380;45.186;9.792;2022-11-20T14:31:23;100553.88;;;10.56;100.00
51297;BME280;37380;45.186;9.792;2022-11-20T14:33:52;100551.31;;;10.58;100.00
51297;BME280;37380;45.186;9.792;2022-11-20T14:36:21;100558.38;;;10.35;100.00
51297;BME280;37380;45.186;9.792;2022-11-20T14:38:49;100562.53;;;10.28;100.00
51297;BME280;37380;45.186;9.792;2022-11-20T14:41:20;100559.72;;;10.24;100.00
51297;BME280;37380;45.186;9.792;2022-11-20T14:43:58;100557.06;;;10.22;100.00
51297;BME280;37380;45.186;9.792;2022-11-20T14:46:26;100559.69;;;10.22;100.00
51297;BME280;37380;45.186;9.792;2022-11-20T14:49:00;100561.25;;;10.17;100.00
51297;BME280;37380;45.186;9.792;2022-11-20T14:51:38;100559.69;;;10.22;100.00
51297;BME280;37380;45.186;9.792;2022-11-20T14:54:35;100560.97;;;10.09;100.00
51297;BME280;37380;45.186;9.792;2022-11-20T14:57:20;100561.59;;;10.02;100.00
51297;BME280;37380;45.186;9.792;2022-11-20T14:59:49;100565.00;;;10.00;100.00
51297;BME280;37380;45.186;9.792;2022-11-20T15:02:15;100567.56;;;9.98;100.00
51297;BME280;37380;45.186;9.792;2022-11-20T15:04:59;100556.78;;;9.89;100.00
51297;BME280;37380;45.186;9.792;2022-11-20T15:08:12;100561.84;;;9.84;100.00
51297;BME280;37380;45.186;9.792;2022-11-20T15:10:47;100560.75;;;9.78;100.00